createdAt,value
2023-03-08T00:02:23.126Z,5.60
2023-03-08T00:04:54.535Z,5.50
2023-03-08T00:07:21.651Z,5.50
2023-03-08T00:09:49.085Z,5.50
2023-03-08T00:12:19.688Z,5.60
2023-03-08T00:14:47.316Z,5.60
2023-03-08T00:17:14.356Z,5.60
2023-03-08T00:19:41.650Z,5.50
2023-03-08T00:22:11.096Z,5.50
2023-03-08T00:24:38.514Z,5.60
2023-03-08T00:27:06.039Z,5.70
2023-03-08T00:29:33.052Z,5.70
2023-03-08T00:32:00.142Z,5.50
2023-03-08T00:34:27.231Z,5.60
2023-03-08T00:36:54.136Z,5.70
2023-03-08T00:39:23.012Z,5.70
2023-03-08T00:41:50.490Z,5.70
2023-03-08T00:44:17.923Z,5.70
2023-03-08T00:46:45.476Z,5.70
2023-03-08T00:49:14.265Z,5.70
2023-03-08T00:51:41.236Z,5.70
2023-03-08T00:54:08.202Z,5.60
2023-03-08T00:56:36.499Z,5.60
2023-03-08T00:59:04.818Z,5.70
2023-03-08T01:01:32.262Z,5.60
2023-03-08T01:04:00.021Z,5.70
2023-03-08T01:06:27.024Z,5.70
2023-03-08T01:08:54.464Z,5.60
2023-03-08T01:11:23.965Z,5.50
2023-03-08T01:13:54.476Z,5.50
2023-03-08T01:16:23.901Z,5.60
2023-03-08T01:21:36.106Z,5.50
2023-03-08T01:24:03.728Z,5.50
2023-03-08T01:26:31.281Z,5.60
2023-03-08T01:29:00.405Z,5.70
2023-03-08T01:31:29.546Z,5.70
2023-03-08T01:33:58.272Z,5.60
2023-03-08T01:36:27.595Z,5.70
2023-03-08T01:38:55.696Z,5.60
2023-03-08T01:41:26.798Z,5.60
2023-03-08T01:46:40.679Z,5.60
2023-03-08T01:49:12.281Z,5.60
2023-03-08T01:51:43.902Z,5.70
2023-03-08T01:54:16.438Z,5.60
2023-03-08T01:56:48.093Z,5.50
2023-03-08T01:59:16.272Z,5.40
2023-03-08T02:01:45.244Z,5.50
2023-03-08T02:04:12.960Z,5.60
2023-03-08T02:06:40.042Z,5.60
2023-03-08T02:09:07.795Z,5.50
2023-03-08T02:11:36.791Z,5.50
2023-03-08T02:14:04.454Z,5.60
2023-03-08T02:16:31.868Z,5.60
2023-03-08T02:19:04.342Z,5.60
2023-03-08T02:21:33.244Z,5.60
2023-03-08T02:24:07.763Z,5.60
2023-03-08T02:26:37.633Z,5.60
2023-03-08T02:29:05.097Z,5.60
2023-03-08T02:31:32.045Z,5.60
2023-03-08T02:33:59.493Z,5.50
2023-03-08T02:36:27.051Z,5.50
2023-03-08T02:38:54.588Z,5.50
2023-03-08T02:41:22.996Z,5.60
2023-03-08T02:43:50.363Z,5.60
2023-03-08T02:46:17.839Z,5.60
2023-03-08T02:48:46.096Z,5.60
2023-03-08T02:51:13.101Z,5.60
2023-03-08T02:56:25.659Z,5.50
2023-03-08T02:58:53.094Z,5.60
2023-03-08T03:04:05.216Z,5.40
2023-03-08T03:06:33.696Z,5.50
2023-03-08T03:09:01.203Z,5.50
2023-03-08T03:11:29.966Z,5.40
2023-03-08T03:13:59.364Z,5.20
2023-03-08T03:16:27.518Z,5.40
2023-03-08T03:18:56.697Z,5.40
2023-03-08T03:21:25.424Z,5.40
2023-03-08T03:23:54.376Z,5.30
2023-03-08T03:26:25.180Z,5.40
2023-03-08T03:28:57.860Z,5.30
2023-03-08T03:31:25.844Z,5.30
2023-03-08T03:33:53.974Z,5.30
2023-03-08T03:36:22.826Z,5.50
2023-03-08T03:38:51.223Z,5.50
2023-03-08T03:41:20.860Z,5.60
2023-03-08T03:43:49.647Z,5.40
2023-03-08T03:46:22.010Z,5.50
2023-03-08T03:48:49.511Z,5.40
2023-03-08T03:51:18.409Z,5.40
2023-03-08T03:53:46.095Z,5.40
2023-03-08T03:56:15.757Z,5.30
2023-03-08T03:58:43.368Z,5.40
2023-03-08T04:01:13.456Z,5.30
2023-03-08T04:03:41.920Z,5.30
2023-03-08T04:06:12.812Z,5.40
2023-03-08T04:08:42.607Z,5.40
2023-03-08T04:11:11.104Z,5.30
2023-03-08T04:13:38.996Z,5.30
2023-03-08T04:16:11.463Z,5.30
2023-03-08T04:18:38.525Z,5.30
2023-03-08T04:21:07.471Z,5.30
2023-03-08T04:23:35.209Z,5.30
2023-03-08T04:26:02.956Z,5.40
2023-03-08T04:28:30.273Z,5.40
2023-03-08T04:30:58.253Z,5.40
2023-03-08T04:33:25.192Z,5.40
2023-03-08T04:35:52.799Z,5.40
2023-03-08T04:38:21.131Z,5.50
2023-03-08T04:41:03.144Z,5.50
2023-03-08T04:43:30.568Z,5.50
2023-03-08T04:45:57.990Z,5.50
2023-03-08T04:48:26.527Z,5.50
2023-03-08T04:50:55.500Z,5.40
2023-03-08T04:53:25.348Z,5.40
2023-03-08T04:55:53.233Z,5.30
2023-03-08T04:58:21.529Z,5.30
2023-03-08T05:00:48.812Z,5.20
2023-03-08T05:03:16.493Z,5.10
2023-03-08T05:05:47.696Z,5.20
2023-03-08T05:08:15.586Z,5.10
2023-03-08T05:10:49.004Z,4.90
2023-03-08T05:13:16.794Z,4.90
2023-03-08T05:15:43.837Z,5.00
2023-03-08T05:18:10.848Z,5.00
2023-03-08T05:20:38.702Z,5.10
2023-03-08T05:23:06.173Z,5.00
2023-03-08T05:25:34.087Z,5.10
2023-03-08T05:28:02.372Z,5.00
2023-03-08T05:30:29.564Z,4.90
2023-03-08T05:32:57.405Z,4.90
2023-03-08T05:35:24.375Z,4.80
2023-03-08T05:37:52.074Z,4.90
2023-03-08T05:40:19.314Z,4.80
2023-03-08T05:42:46.737Z,4.90
2023-03-08T05:45:15.305Z,4.90
2023-03-08T05:47:42.370Z,4.90
2023-03-08T05:50:12.054Z,4.90
2023-03-08T05:52:38.992Z,5.00
2023-03-08T05:55:07.365Z,4.90
2023-03-08T05:57:34.360Z,4.90
2023-03-08T06:00:01.772Z,4.90
2023-03-08T06:02:30.383Z,4.90
2023-03-08T06:04:57.385Z,5.00
2023-03-08T06:07:24.995Z,5.00
2023-03-08T06:09:51.959Z,5.00
2023-03-08T06:12:19.501Z,4.90
2023-03-08T06:14:46.408Z,4.90
2023-03-08T06:17:13.834Z,4.80
2023-03-08T06:19:42.318Z,4.90
2023-03-08T06:22:09.328Z,4.90
2023-03-08T06:24:36.257Z,4.90
2023-03-08T06:27:03.175Z,5.00
2023-03-08T06:29:30.679Z,4.90
2023-03-08T06:31:57.601Z,4.90
2023-03-08T06:37:10.354Z,5.10
2023-03-08T06:39:37.282Z,5.10
2023-03-08T06:42:04.728Z,5.00
2023-03-08T06:44:32.221Z,5.00
2023-03-08T06:46:59.159Z,5.00
2023-03-08T06:49:26.594Z,5.00
2023-03-08T06:51:53.546Z,4.90
2023-03-08T06:54:22.365Z,4.90
2023-03-08T06:56:49.478Z,5.00
2023-03-08T06:59:16.953Z,5.00
2023-03-08T07:01:43.993Z,5.00
2023-03-08T07:04:11.146Z,5.10
2023-03-08T07:06:38.285Z,5.00
2023-03-08T07:09:05.282Z,5.10
2023-03-08T07:11:34.281Z,5.10
2023-03-08T07:14:01.307Z,5.20
2023-03-08T07:16:29.140Z,5.10
2023-03-08T07:18:56.937Z,5.10
2023-03-08T07:21:24.644Z,5.10
2023-03-08T07:23:53.171Z,5.10
2023-03-08T07:26:20.316Z,5.00
2023-03-08T07:28:51.177Z,5.00
2023-03-08T07:31:18.589Z,5.00
2023-03-08T07:33:46.133Z,4.90
2023-03-08T07:36:13.837Z,4.90
2023-03-08T07:38:41.403Z,4.80
2023-03-08T07:41:08.570Z,4.90
2023-03-08T07:43:35.549Z,4.80
2023-03-08T07:46:05.025Z,4.70
2023-03-08T07:48:33.418Z,4.60
2023-03-08T07:51:03.123Z,4.60
2023-03-08T07:53:31.031Z,4.60
2023-03-08T07:55:59.666Z,4.60
2023-03-08T07:58:27.220Z,4.70
2023-03-08T08:00:54.803Z,4.60
2023-03-08T08:03:23.809Z,4.50
2023-03-08T08:05:50.874Z,4.50
2023-03-08T08:08:17.924Z,4.60
2023-03-08T08:10:45.388Z,4.50
2023-03-08T08:13:12.497Z,4.50
2023-03-08T08:15:39.479Z,4.40
2023-03-08T08:18:06.719Z,4.50
2023-03-08T08:20:35.258Z,4.30
2023-03-08T08:23:05.154Z,4.30
2023-03-08T08:25:32.282Z,4.30
2023-03-08T08:27:59.357Z,4.40
2023-03-08T08:30:26.533Z,4.40
2023-03-08T08:32:53.626Z,4.50
2023-03-08T08:38:06.870Z,4.30
2023-03-08T08:40:34.061Z,4.30
2023-03-08T08:43:01.036Z,4.20
2023-03-08T08:45:28.101Z,4.10
2023-03-08T08:47:55.606Z,4.20
2023-03-08T08:50:22.620Z,4.20
2023-03-08T08:52:49.984Z,4.20
2023-03-08T08:55:18.446Z,4.30
2023-03-08T08:57:45.718Z,4.30
2023-03-08T09:00:14.855Z,4.30
2023-03-08T09:02:41.872Z,4.40
2023-03-08T09:05:09.748Z,4.30
2023-03-08T09:07:38.274Z,4.20
2023-03-08T09:10:08.717Z,4.30
2023-03-08T09:12:37.156Z,4.30
2023-03-08T09:15:06.064Z,4.30
2023-03-08T09:17:33.387Z,4.40
2023-03-08T09:20:00.367Z,4.30
2023-03-08T09:22:27.400Z,4.30
2023-03-08T09:24:54.349Z,4.30
2023-03-08T09:27:21.355Z,4.20
2023-03-08T09:29:49.954Z,4.20
2023-03-08T09:32:17.513Z,4.20
2023-03-08T09:34:45.169Z,4.20
2023-03-08T09:37:12.508Z,4.20
2023-03-08T09:39:40.652Z,4.10
2023-03-08T09:42:20.570Z,4.10
2023-03-08T09:45:16.919Z,4.20
2023-03-08T09:47:47.967Z,4.40
2023-03-08T09:50:32.890Z,4.40
2023-03-08T09:53:09.536Z,4.40
2023-03-08T09:55:45.150Z,4.40
2023-03-08T09:58:23.182Z,4.40
2023-03-08T10:00:51.649Z,4.30
2023-03-08T10:03:53.034Z,4.30
2023-03-08T10:06:30.655Z,4.30
2023-03-08T10:09:07.506Z,4.30
2023-03-08T10:11:54.589Z,4.40
2023-03-08T10:14:29.266Z,4.30
2023-03-08T10:17:01.980Z,4.40
2023-03-08T10:22:28.064Z,4.40
2023-03-08T10:25:01.658Z,4.40
2023-03-08T10:27:33.202Z,4.40
2023-03-08T10:30:02.997Z,4.50
2023-03-08T10:32:31.414Z,4.50
2023-03-08T10:35:02.779Z,4.40
2023-03-08T10:37:32.570Z,4.50
2023-03-08T10:40:05.870Z,4.50
2023-03-08T10:42:33.718Z,4.50
2023-03-08T10:45:04.352Z,4.60
2023-03-08T10:47:35.168Z,4.60
2023-03-08T10:50:14.347Z,4.40
2023-03-08T10:52:42.762Z,4.40
2023-03-08T10:55:14.251Z,4.40
2023-03-08T10:57:46.030Z,4.30
2023-03-08T11:00:32.885Z,4.20
2023-03-08T11:03:14.641Z,4.30
2023-03-08T11:05:56.927Z,4.30
2023-03-08T11:08:29.400Z,4.50
2023-03-08T11:11:09.649Z,4.50
2023-03-08T11:13:38.960Z,4.50
2023-03-08T11:16:22.801Z,4.60
2023-03-08T11:19:03.729Z,4.70
2023-03-08T11:21:46.751Z,4.80
2023-03-08T11:24:35.668Z,4.80
2023-03-08T11:27:18.684Z,4.80
2023-03-08T11:30:02.958Z,4.70
2023-03-08T11:32:52.437Z,4.70
2023-03-08T11:35:29.290Z,4.70
2023-03-08T11:38:04.901Z,4.80
2023-03-08T11:40:48.304Z,4.90
2023-03-08T11:43:32.092Z,4.90
2023-03-08T11:46:07.868Z,4.80
2023-03-08T11:49:03.939Z,4.80
2023-03-08T11:51:44.141Z,4.80
2023-03-08T11:54:31.524Z,4.80
2023-03-08T11:57:01.415Z,4.80
2023-03-08T11:59:34.146Z,4.80
2023-03-08T12:02:11.904Z,4.90
2023-03-08T12:04:45.115Z,4.90
2023-03-08T12:07:23.417Z,4.90
2023-03-08T12:09:58.833Z,5.00
2023-03-08T12:12:31.583Z,5.00
2023-03-08T12:15:07.785Z,5.00
2023-03-08T12:17:40.772Z,4.90
2023-03-08T12:20:14.468Z,5.00
2023-03-08T12:22:52.161Z,5.00
2023-03-08T12:25:26.747Z,5.00
2023-03-08T12:28:00.968Z,5.10
2023-03-08T12:30:43.045Z,5.10
2023-03-08T12:33:14.365Z,5.20
2023-03-08T12:35:53.021Z,5.20
2023-03-08T12:38:36.000Z,5.30
2023-03-08T12:41:04.983Z,5.30
2023-03-08T12:43:35.118Z,5.30
2023-03-08T12:46:07.125Z,5.30
2023-03-08T12:48:38.145Z,5.30
2023-03-08T12:51:21.051Z,5.30
2023-03-08T12:54:00.286Z,5.20
2023-03-08T12:56:32.517Z,5.30
2023-03-08T12:59:02.481Z,5.20
2023-03-08T13:01:36.203Z,5.20
2023-03-08T13:04:05.376Z,5.40
2023-03-08T13:07:22.425Z,5.30
2023-03-08T13:09:59.175Z,5.30
2023-03-08T13:12:37.544Z,5.40
2023-03-08T13:15:24.922Z,5.30
2023-03-08T13:18:00.584Z,5.40
2023-03-08T13:20:45.300Z,5.40
2023-03-08T13:23:26.262Z,5.30
2023-03-08T13:26:12.989Z,5.40
2023-03-08T13:28:47.699Z,5.50
2023-03-08T13:31:18.899Z,5.30
2023-03-08T13:33:49.676Z,5.40
2023-03-08T13:36:20.691Z,5.50
2023-03-08T13:38:58.704Z,5.60
2023-03-08T13:41:36.250Z,5.70
2023-03-08T13:44:05.661Z,5.80
2023-03-08T13:46:32.905Z,5.80
2023-03-08T13:49:02.093Z,5.70
2023-03-08T13:51:30.151Z,5.70
2023-03-08T13:53:57.951Z,5.70
2023-03-08T13:56:28.168Z,5.70
2023-03-08T13:58:59.485Z,5.80
2023-03-08T14:01:27.231Z,5.80
2023-03-08T14:03:56.088Z,5.80
2023-03-08T14:06:25.769Z,5.70
2023-03-08T14:08:54.553Z,5.70
2023-03-08T14:11:25.875Z,5.70
2023-03-08T14:13:56.705Z,5.70
2023-03-08T14:16:30.761Z,5.80
2023-03-08T14:18:59.403Z,5.80
2023-03-08T14:21:29.043Z,5.80
2023-03-08T14:23:59.438Z,5.80
2023-03-08T14:26:32.346Z,5.70
2023-03-08T14:29:14.671Z,5.80
2023-03-08T14:32:05.280Z,5.80
2023-03-08T14:34:36.024Z,5.80
2023-03-08T14:37:07.967Z,5.80
2023-03-08T14:39:37.057Z,5.80
2023-03-08T14:42:18.392Z,5.90
2023-03-08T14:44:53.877Z,5.90
2023-03-08T14:47:25.357Z,5.80
2023-03-08T14:49:57.429Z,5.80
2023-03-08T14:52:28.169Z,5.80
2023-03-08T14:54:55.340Z,5.80
2023-03-08T14:57:25.865Z,5.70
2023-03-08T14:59:58.021Z,5.70
2023-03-08T15:02:25.461Z,5.60
2023-03-08T15:04:52.556Z,5.70
2023-03-08T15:07:22.858Z,5.80
2023-03-08T15:09:51.462Z,5.70
2023-03-08T15:12:19.003Z,5.80
2023-03-08T15:14:46.019Z,5.70
2023-03-08T15:17:14.496Z,5.80
2023-03-08T15:19:41.552Z,5.80
2023-03-08T15:22:11.128Z,5.80
2023-03-08T15:24:40.447Z,5.70
2023-03-08T15:27:09.325Z,5.70
2023-03-08T15:29:37.568Z,5.70
2023-03-08T15:32:05.048Z,5.70
2023-03-08T15:34:33.452Z,5.90
2023-03-08T15:37:00.978Z,5.90
2023-03-08T15:39:28.074Z,6.00
2023-03-08T15:41:55.575Z,6.00
2023-03-08T15:44:22.575Z,6.00
2023-03-08T15:46:52.540Z,5.90
2023-03-08T15:49:20.420Z,5.90
2023-03-08T15:51:48.723Z,6.00
2023-03-08T15:57:00.662Z,6.10
2023-03-08T15:59:27.707Z,6.10
2023-03-08T16:01:54.653Z,6.10
2023-03-08T16:04:21.607Z,6.10
2023-03-08T16:06:49.935Z,6.00
2023-03-08T16:09:16.944Z,6.10
2023-03-08T16:11:44.324Z,6.10
2023-03-08T16:14:17.571Z,6.10
2023-03-08T16:19:32.728Z,6.10
2023-03-08T16:22:01.670Z,6.10
2023-03-08T16:24:29.375Z,6.20
2023-03-08T16:26:56.962Z,6.10
2023-03-08T16:29:25.042Z,6.10
2023-03-08T16:31:52.901Z,6.10
2023-03-08T16:34:20.406Z,6.00
2023-03-08T16:36:47.355Z,6.10
2023-03-08T16:39:16.208Z,6.10
2023-03-08T16:41:43.915Z,6.20
2023-03-08T16:44:20.174Z,6.10
2023-03-08T16:46:47.661Z,6.10
2023-03-08T16:49:15.416Z,6.10
2023-03-08T16:51:43.676Z,6.10
2023-03-08T16:54:12.034Z,6.10
2023-03-08T16:56:43.405Z,6.30
2023-03-08T16:59:13.636Z,6.40
2023-03-08T17:01:44.371Z,6.20
2023-03-08T17:04:11.964Z,6.30
2023-03-08T17:06:39.734Z,6.20
2023-03-08T17:09:07.336Z,6.20
2023-03-08T17:11:35.746Z,6.20
2023-03-08T17:14:07.216Z,6.10
2023-03-08T17:16:35.627Z,6.10
2023-03-08T17:19:04.949Z,6.10
2023-03-08T17:21:38.695Z,6.10
2023-03-08T17:24:08.080Z,6.20
2023-03-08T17:26:41.383Z,6.20
2023-03-08T17:29:09.756Z,6.30
2023-03-08T17:31:38.992Z,6.20
2023-03-08T17:34:07.590Z,6.10
2023-03-08T17:36:34.794Z,6.00
2023-03-08T17:39:02.370Z,6.00
2023-03-08T17:41:30.245Z,6.10
2023-03-08T17:43:57.211Z,6.20
2023-03-08T17:46:29.559Z,6.20
2023-03-08T17:48:56.873Z,6.30
2023-03-08T17:51:27.788Z,6.20
2023-03-08T17:53:56.978Z,6.30
2023-03-08T17:56:28.637Z,6.30
2023-03-08T17:58:56.805Z,6.40
2023-03-08T18:01:28.516Z,6.40
2023-03-08T18:03:57.512Z,6.50
2023-03-08T18:06:28.956Z,6.50
2023-03-08T18:08:56.613Z,6.60
2023-03-08T18:11:24.825Z,6.60
2023-03-08T18:13:52.038Z,6.60
2023-03-08T18:16:21.128Z,6.70
2023-03-08T18:18:50.195Z,6.70
2023-03-08T18:21:17.868Z,6.70
2023-03-08T18:23:46.947Z,6.70
2023-03-08T18:26:18.282Z,6.70
2023-03-08T18:28:46.505Z,6.70
2023-03-08T18:31:16.616Z,6.70
2023-03-08T18:33:44.085Z,6.70
2023-03-08T18:36:13.530Z,6.70
2023-03-08T18:38:41.933Z,6.70
2023-03-08T18:41:14.496Z,6.70
2023-03-08T18:43:41.801Z,6.70
2023-03-08T18:46:12.415Z,6.70
2023-03-08T18:48:40.808Z,6.80
2023-03-08T18:51:07.994Z,6.80
2023-03-08T18:53:37.499Z,6.90
2023-03-08T18:56:05.321Z,6.90
2023-03-08T18:58:33.454Z,7.00
2023-03-08T19:01:02.712Z,7.00
2023-03-08T19:03:31.344Z,7.00
2023-03-08T19:06:03.813Z,7.00
2023-03-08T19:08:31.472Z,7.00
2023-03-08T19:11:09.881Z,7.00
2023-03-08T19:13:36.833Z,7.00
2023-03-08T19:16:04.452Z,7.00
2023-03-08T19:18:31.457Z,7.00
2023-03-08T19:20:58.430Z,6.80
2023-03-08T19:23:26.109Z,6.70
2023-03-08T19:26:11.853Z,6.60
2023-03-08T19:28:40.183Z,6.60
2023-03-08T19:31:16.467Z,6.50
2023-03-08T19:33:49.877Z,6.60
2023-03-08T19:36:16.859Z,6.50
2023-03-08T19:38:44.400Z,6.50
2023-03-08T19:41:12.554Z,6.50
2023-03-08T19:43:40.943Z,6.50
2023-03-08T19:46:09.539Z,6.30
2023-03-08T19:48:36.940Z,6.40
2023-03-08T19:51:05.342Z,6.50
2023-03-08T19:53:32.329Z,6.50
2023-03-08T19:55:59.312Z,6.40
2023-03-08T19:58:26.378Z,6.40
2023-03-08T20:01:02.570Z,6.50
2023-03-08T20:03:29.889Z,6.40
2023-03-08T20:05:57.330Z,6.40
2023-03-08T20:08:24.634Z,6.50
2023-03-08T20:10:51.660Z,6.50
2023-03-08T20:13:19.391Z,6.60
2023-03-08T20:15:46.824Z,6.50
2023-03-08T20:18:15.354Z,6.50
2023-03-08T20:20:42.438Z,6.40
2023-03-08T20:23:10.191Z,6.40
2023-03-08T20:25:37.722Z,6.40
2023-03-08T20:28:05.032Z,6.40
2023-03-08T20:33:18.431Z,6.60
2023-03-08T20:38:32.844Z,6.70
2023-03-08T20:41:02.519Z,6.70
2023-03-08T20:43:31.383Z,6.60
2023-03-08T20:45:59.841Z,6.60
2023-03-08T20:48:28.574Z,6.60
2023-03-08T20:50:59.621Z,6.60
2023-03-08T20:53:27.085Z,6.50
2023-03-08T20:55:54.065Z,6.50
2023-03-08T20:58:21.551Z,6.40
2023-03-08T21:00:48.638Z,6.40
2023-03-08T21:03:15.804Z,6.40
2023-03-08T21:05:45.054Z,6.50
2023-03-08T21:08:12.057Z,6.60
2023-03-08T21:10:40.191Z,6.60
2023-03-08T21:13:08.284Z,6.60
2023-03-08T21:15:36.303Z,6.50
2023-03-08T21:18:04.202Z,6.60
2023-03-08T21:20:36.017Z,6.50
2023-03-08T21:23:04.505Z,6.60
2023-03-08T21:25:35.450Z,6.60
2023-03-08T21:28:02.396Z,6.50
2023-03-08T21:30:31.213Z,6.60
2023-03-08T21:32:58.258Z,6.50
2023-03-08T21:35:25.654Z,6.50
2023-03-08T21:37:52.676Z,6.50
2023-03-08T21:40:21.860Z,6.60
2023-03-08T21:42:49.189Z,6.60
2023-03-08T21:45:16.373Z,6.70
2023-03-08T21:47:43.878Z,6.80
2023-03-08T21:50:12.145Z,6.80
2023-03-08T21:52:39.134Z,6.70
2023-03-08T21:55:07.078Z,6.60
2023-03-08T21:57:35.467Z,6.60
2023-03-08T22:00:02.479Z,6.60
2023-03-08T22:02:29.509Z,6.60
2023-03-08T22:04:56.903Z,6.60
2023-03-08T22:07:24.047Z,6.50
2023-03-08T22:12:37.174Z,6.50
2023-03-08T22:15:06.459Z,6.60
2023-03-08T22:17:33.542Z,6.60
2023-03-08T22:20:00.591Z,6.60
2023-03-08T22:22:27.609Z,6.70
2023-03-08T22:24:54.602Z,6.70
2023-03-08T22:27:23.845Z,6.70
2023-03-08T22:29:52.719Z,6.60
2023-03-08T22:32:20.540Z,6.60
2023-03-08T22:34:47.701Z,6.70
2023-03-08T22:37:14.955Z,6.80
2023-03-08T22:39:42.932Z,6.90
2023-03-08T22:42:09.927Z,6.90
2023-03-08T22:44:37.508Z,6.80
2023-03-08T22:47:06.216Z,6.80
2023-03-08T22:49:34.379Z,6.90
2023-03-08T22:52:01.852Z,7.00
2023-03-08T22:54:28.899Z,7.00
2023-03-08T22:56:57.129Z,6.90
2023-03-08T22:59:26.051Z,6.90
2023-03-08T23:01:53.484Z,6.80
2023-03-08T23:04:22.537Z,6.80
2023-03-08T23:06:50.091Z,6.80
2023-03-08T23:12:05.011Z,6.70
2023-03-08T23:14:32.683Z,6.70
2023-03-08T23:16:59.959Z,6.80
2023-03-08T23:19:28.779Z,6.80
2023-03-08T23:21:56.856Z,6.80
2023-03-08T23:24:23.981Z,6.90
2023-03-08T23:26:51.039Z,6.90
2023-03-08T23:29:18.670Z,7.00
2023-03-08T23:31:46.901Z,6.90
2023-03-08T23:34:14.750Z,6.90
2023-03-08T23:36:43.298Z,6.90
2023-03-08T23:39:11.268Z,7.00
2023-03-08T23:41:40.660Z,7.10
2023-03-08T23:44:07.888Z,7.10
2023-03-08T23:46:35.500Z,7.30
2023-03-08T23:49:02.819Z,7.30
2023-03-08T23:51:33.354Z,7.30
2023-03-08T23:54:03.548Z,7.30
2023-03-08T23:56:38.510Z,7.30
2023-03-08T23:59:10.620Z,7.30
